Huvudsida
METAR-TAF:

METAR-TAF

Flygplatser :

Mar Del Plata

Mar del Plata, Argentina

latitud: 37-56S, longitud: 057-35W, höjd: 18 m

Aktuellt väderrapport

Denna rapport gjordes för 23 minuter sedan, klockan 16:00 UTC
Vind 11 kt från ost, varierande mellan nordost och ost/sydost
Temperatur 22°C
Fuktighet 60%
Tryck 1013 hPa
Sikt 10 km eller mer
Få moln på en höjd av 3500 ft

METAR: SAZM 191600Z 09011KT 050V120 9999 FEW035 22/14 Q1013

Tid: 13:23 (16:23 UTC)

Väderprognos

Denna rapport gjordes för 5 timmar och 23 minuter sedan, klockan 11:00 UTC
Prognos gäller från 19 kl. 12 UTC till 20 kl. 12 UTC
Vind 10 kt från nord
Sikt 10 km eller mer
Inga moln under 1 500 m eller inga cumulonimbus
Blir
från 19 kl. 15 UTC till 19 kl. 18 UTC
Vind 15 kt från nord/nordost i byarna ända upp till 25 kt

TAF: SAZM 191100Z 1912/2012 36010KT CAVOK TX25/1918Z TN15/2010Z BECMG 1915/1918 02015G25KT

Aktuella väderrapporter och prognoser från 4000 flygplatser (METAR- och TAF-rapporter).

De tillgängliga stationerna syns som gula och röda prickar på kartan.

För musen över prickarna för att se namnen på stationerna.

Klicka sedan för att få väderrapporter och prognoser.

För att ändra kartan: Klicka på de gröna knapparna med ett svart kors på för att zooma in; den gröna knappen med ett streck på för att zooma ut; eller på de gröna pilarna för angränsande kartor.


METAR-TAF: